sensor_id;sensor_type;location;lat;lon;timestamp;pressure;altitude;pressure_sealevel;temperature;humidity
55418;BME280;41287;47.554;7.844;2023-10-09T00:00:39;98729.47;;;21.29;49.83
55418;BME280;41287;47.554;7.844;2023-10-09T00:03:06;98732.19;;;21.29;49.98
55418;BME280;41287;47.554;7.844;2023-10-09T00:05:33;98734.94;;;21.29;50.15
55418;BME280;41287;47.554;7.844;2023-10-09T00:08:18;98734.16;;;21.28;50.07
55418;BME280;41287;47.554;7.844;2023-10-09T00:10:59;98741.97;;;21.30;49.98
55418;BME280;41287;47.554;7.844;2023-10-09T00:13:40;98737.31;;;21.31;50.04
55418;BME280;41287;47.554;7.844;2023-10-09T00:16:19;98736.53;;;21.30;50.26
55418;BME280;41287;47.554;7.844;2023-10-09T00:19:04;98731.88;;;21.31;50.06
55418;BME280;41287;47.554;7.844;2023-10-09T00:21:55;98735.63;;;21.26;50.16
55418;BME280;41287;47.554;7.844;2023-10-09T00:24:21;98738.91;;;21.32;49.87
55418;BME280;41287;47.554;7.844;2023-10-09T00:26:58;98737.31;;;21.31;50.03
55418;BME280;41287;47.554;7.844;2023-10-09T00:29:39;98729.94;;;21.31;50.03
55418;BME280;41287;47.554;7.844;2023-10-09T00:32:12;98737.31;;;21.31;50.25
55418;BME280;41287;47.554;7.844;2023-10-09T00:34:50;98733.47;;;21.32;50.10
55418;BME280;41287;47.554;7.844;2023-10-09T00:37:16;98728.34;;;21.30;49.97
55418;BME280;41287;47.554;7.844;2023-10-09T00:39:44;98724.03;;;21.29;49.96
55418;BME280;41287;47.554;7.844;2023-10-09T00:42:12;98730.28;;;21.29;49.98
55418;BME280;41287;47.554;7.844;2023-10-09T00:44:40;98728.03;;;21.32;50.25
55418;BME280;41287;47.554;7.844;2023-10-09T00:47:09;98723.69;;;21.31;50.13
55418;BME280;41287;47.554;7.844;2023-10-09T00:49:51;98721.78;;;21.31;50.08
55418;BME280;41287;47.554;7.844;2023-10-09T00:52:24;98725.28;;;21.32;50.11
55418;BME280;41287;47.554;7.844;2023-10-09T00:54:59;98719.03;;;21.31;49.89
55418;BME280;41287;47.554;7.844;2023-10-09T00:57:29;98716.31;;;21.31;50.02
55418;BME280;41287;47.554;7.844;2023-10-09T00:59:59;98708.94;;;21.32;50.11
55418;BME280;41287;47.554;7.844;2023-10-09T01:02:28;98705.41;;;21.31;50.02
55418;BME280;41287;47.554;7.844;2023-10-09T01:05:04;98704.63;;;21.31;50.12
55418;BME280;41287;47.554;7.844;2023-10-09T01:07:37;98707.00;;;21.32;50.13
55418;BME280;41287;47.554;7.844;2023-10-09T01:10:06;98698.84;;;21.32;50.13
55418;BME280;41287;47.554;7.844;2023-10-09T01:12:34;98707.00;;;21.32;50.24
55418;BME280;41287;47.554;7.844;2023-10-09T01:15:07;98707.00;;;21.32;50.34
55418;BME280;41287;47.554;7.844;2023-10-09T01:17:33;98714.38;;;21.32;50.31
55418;BME280;41287;47.554;7.844;2023-10-09T01:20:02;98707.81;;;21.33;50.05
55418;BME280;41287;47.554;7.844;2023-10-09T01:22:40;98707.00;;;21.32;50.21
55418;BME280;41287;47.554;7.844;2023-10-09T01:25:07;98708.59;;;21.33;50.32
55418;BME280;41287;47.554;7.844;2023-10-09T01:27:32;98710.53;;;21.33;50.18
55418;BME280;41287;47.554;7.844;2023-10-09T01:30:00;98708.59;;;21.33;50.29
55418;BME280;41287;47.554;7.844;2023-10-09T01:32:25;98702.34;;;21.33;50.30
55418;BME280;41287;47.554;7.844;2023-10-09T01:34:52;98705.09;;;21.33;50.26
55418;BME280;41287;47.554;7.844;2023-10-09T01:37:20;98712.13;;;21.34;50.11
55418;BME280;41287;47.554;7.844;2023-10-09T01:39:55;98707.47;;;21.34;50.25
55418;BME280;41287;47.554;7.844;2023-10-09T01:42:23;98705.88;;;21.33;50.38
55418;BME280;41287;47.554;7.844;2023-10-09T01:45:11;98700.44;;;21.33;50.17
55418;BME280;41287;47.554;7.844;2023-10-09T01:47:37;98706.69;;;21.34;50.38
55418;BME280;41287;47.554;7.844;2023-10-09T01:50:07;98699.63;;;21.33;50.46
55418;BME280;41287;47.554;7.844;2023-10-09T01:52:38;98702.03;;;21.34;50.16
55418;BME280;41287;47.554;7.844;2023-10-09T01:55:04;98697.69;;;21.33;50.40
55418;BME280;41287;47.554;7.844;2023-10-09T01:57:34;98693.06;;;21.34;50.33
55418;BME280;41287;47.554;7.844;2023-10-09T02:00:05;98690.31;;;21.34;50.11
55418;BME280;41287;47.554;7.844;2023-10-09T02:02:32;98695.78;;;21.34;50.34
55418;BME280;41287;47.554;7.844;2023-10-09T02:07:40;98687.59;;;21.34;50.50
55418;BME280;41287;47.554;7.844;2023-10-09T02:10:10;98688.41;;;21.34;50.39
55418;BME280;41287;47.554;7.844;2023-10-09T02:12:50;98686.00;;;21.33;50.34
55418;BME280;41287;47.554;7.844;2023-10-09T02:15:29;98693.06;;;21.34;50.21
55418;BME280;41287;47.554;7.844;2023-10-09T02:18:20;98691.91;;;21.35;50.21
55418;BME280;41287;47.554;7.844;2023-10-09T02:20:50;98689.19;;;21.35;50.42
55418;BME280;41287;47.554;7.844;2023-10-09T02:23:28;98691.13;;;21.34;50.33
55418;BME280;41287;47.554;7.844;2023-10-09T02:26:14;98687.59;;;21.34;50.40
55418;BME280;41287;47.554;7.844;2023-10-09T02:28:45;98689.19;;;21.35;50.43
55418;BME280;41287;47.554;7.844;2023-10-09T02:31:23;98688.41;;;21.34;50.24
55418;BME280;41287;47.554;7.844;2023-10-09T02:33:52;98688.41;;;21.34;50.58
55418;BME280;41287;47.554;7.844;2023-10-09T02:36:20;98683.75;;;21.35;50.43
55418;BME280;41287;47.554;7.844;2023-10-09T02:38:46;98673.97;;;21.34;50.53
55418;BME280;41287;47.554;7.844;2023-10-09T02:41:16;98677.50;;;21.34;50.35
55418;BME280;41287;47.554;7.844;2023-10-09T02:43:41;98676.69;;;21.34;50.27
55418;BME280;41287;47.554;7.844;2023-10-09T02:46:17;98673.16;;;21.33;50.34
55418;BME280;41287;47.554;7.844;2023-10-09T02:48:47;98677.50;;;21.34;50.50
55418;BME280;41287;47.554;7.844;2023-10-09T02:51:27;98671.56;;;21.32;50.44
55418;BME280;41287;47.554;7.844;2023-10-09T02:56:18;98677.50;;;21.34;50.47
55418;BME280;41287;47.554;7.844;2023-10-09T02:58:50;98676.38;;;21.35;50.63
55418;BME280;41287;47.554;7.844;2023-10-09T03:01:16;98676.69;;;21.34;50.45
55418;BME280;41287;47.554;7.844;2023-10-09T03:03:42;98672.84;;;21.35;50.35
55418;BME280;41287;47.554;7.844;2023-10-09T03:06:14;98674.44;;;21.36;50.38
55418;BME280;41287;47.554;7.844;2023-10-09T03:08:44;98673.63;;;21.35;50.49
55418;BME280;41287;47.554;7.844;2023-10-09T03:11:13;98673.63;;;21.35;50.47
55418;BME280;41287;47.554;7.844;2023-10-09T03:13:42;98672.03;;;21.34;50.30
55418;BME280;41287;47.554;7.844;2023-10-09T03:16:12;98670.91;;;21.35;50.52
55418;BME280;41287;47.554;7.844;2023-10-09T03:18:51;98674.78;;;21.34;50.33
55418;BME280;41287;47.554;7.844;2023-10-09T03:21:20;98672.84;;;21.35;50.51
55418;BME280;41287;47.554;7.844;2023-10-09T03:23:47;98675.56;;;21.35;50.36
55418;BME280;41287;47.554;7.844;2023-10-09T03:26:18;98675.56;;;21.35;50.56
55418;BME280;41287;47.554;7.844;2023-10-09T03:28:45;98679.88;;;21.36;50.41
55418;BME280;41287;47.554;7.844;2023-10-09T03:31:11;98676.38;;;21.35;50.43
55418;BME280;41287;47.554;7.844;2023-10-09T03:33:37;98672.84;;;21.35;50.68
55418;BME280;41287;47.554;7.844;2023-10-09T03:36:05;98673.63;;;21.35;50.54
55418;BME280;41287;47.554;7.844;2023-10-09T03:38:37;98676.38;;;21.35;50.64
55418;BME280;41287;47.554;7.844;2023-10-09T03:41:04;98673.63;;;21.35;50.35
55418;BME280;41287;47.554;7.844;2023-10-09T03:43:34;98673.28;;;21.37;50.53
55418;BME280;41287;47.554;7.844;2023-10-09T03:46:05;98668.19;;;21.35;50.37
55418;BME280;41287;47.554;7.844;2023-10-09T03:48:33;98671.72;;;21.36;50.47
55418;BME280;41287;47.554;7.844;2023-10-09T03:51:02;98667.03;;;21.36;50.39
55418;BME280;41287;47.554;7.844;2023-10-09T03:53:38;98674.44;;;21.36;50.35
55418;BME280;41287;47.554;7.844;2023-10-09T03:56:08;98675.22;;;21.36;50.42
55418;BME280;41287;47.554;7.844;2023-10-09T03:58:38;98677.16;;;21.36;50.62
55418;BME280;41287;47.554;7.844;2023-10-09T04:01:09;98678.28;;;21.35;50.67
55418;BME280;41287;47.554;7.844;2023-10-09T04:03:38;98671.72;;;21.36;50.39
55418;BME280;41287;47.554;7.844;2023-10-09T04:06:04;98670.13;;;21.35;50.67
55418;BME280;41287;47.554;7.844;2023-10-09T04:08:33;98669.00;;;21.36;50.49
55418;BME280;41287;47.554;7.844;2023-10-09T04:10:58;98674.44;;;21.36;50.46
55418;BME280;41287;47.554;7.844;2023-10-09T04:13:31;98673.63;;;21.35;50.65
55418;BME280;41287;47.554;7.844;2023-10-09T04:16:02;98667.38;;;21.35;50.50
55418;BME280;41287;47.554;7.844;2023-10-09T04:18:36;98665.47;;;21.35;50.72
55418;BME280;41287;47.554;7.844;2023-10-09T04:21:05;98661.94;;;21.35;50.72
55418;BME280;41287;47.554;7.844;2023-10-09T04:23:55;98672.84;;;21.35;50.72
55418;BME280;41287;47.554;7.844;2023-10-09T04:26:45;98666.59;;;21.34;50.74
55418;BME280;41287;47.554;7.844;2023-10-09T04:29:16;98671.25;;;21.34;50.66
55418;BME280;41287;47.554;7.844;2023-10-09T04:31:57;98672.03;;;21.34;50.40
55418;BME280;41287;47.554;7.844;2023-10-09T04:34:26;98670.13;;;21.35;50.50
55418;BME280;41287;47.554;7.844;2023-10-09T04:37:00;98669.31;;;21.34;50.60
55418;BME280;41287;47.554;7.844;2023-10-09T04:39:28;98665.78;;;21.34;50.65
55418;BME280;41287;47.554;7.844;2023-10-09T04:41:57;98661.94;;;21.35;50.79
55418;BME280;41287;47.554;7.844;2023-10-09T04:44:42;98669.31;;;21.34;50.68
55418;BME280;41287;47.554;7.844;2023-10-09T04:47:28;98661.94;;;21.35;50.75
55418;BME280;41287;47.554;7.844;2023-10-09T04:50:06;98672.84;;;21.35;50.47
55418;BME280;41287;47.554;7.844;2023-10-09T04:52:35;98671.25;;;21.34;50.65
55418;BME280;41287;47.554;7.844;2023-10-09T04:55:01;98676.69;;;21.34;50.55
55418;BME280;41287;47.554;7.844;2023-10-09T05:00:13;98675.56;;;21.35;50.47
55418;BME280;41287;47.554;7.844;2023-10-09T05:02:48;98672.84;;;21.35;50.92
55418;BME280;41287;47.554;7.844;2023-10-09T05:05:23;98677.50;;;21.34;50.64
55418;BME280;41287;47.554;7.844;2023-10-09T05:07:58;98672.84;;;21.35;50.46
55418;BME280;41287;47.554;7.844;2023-10-09T05:10:43;98675.56;;;21.35;50.86
55418;BME280;41287;47.554;7.844;2023-10-09T05:16:17;98673.97;;;21.34;50.92
55418;BME280;41287;47.554;7.844;2023-10-09T05:18:47;98685.69;;;21.34;50.49
55418;BME280;41287;47.554;7.844;2023-10-09T05:21:37;98674.31;;;21.32;50.73
55418;BME280;41287;47.554;7.844;2023-10-09T05:24:12;98683.75;;;21.35;50.70
55418;BME280;41287;47.554;7.844;2023-10-09T05:32:02;98693.84;;;21.34;50.67
55418;BME280;41287;47.554;7.844;2023-10-09T05:34:32;98695.44;;;21.35;50.66
55418;BME280;41287;47.554;7.844;2023-10-09T05:37:20;98691.13;;;21.34;50.91
55418;BME280;41287;47.554;7.844;2023-10-09T05:39:58;98700.09;;;21.35;50.68
55418;BME280;41287;47.554;7.844;2023-10-09T05:42:30;98700.09;;;21.35;50.59
55418;BME280;41287;47.554;7.844;2023-10-09T05:45:05;98695.78;;;21.34;50.94
55418;BME280;41287;47.554;7.844;2023-10-09T05:47:52;98702.34;;;21.33;50.75
55418;BME280;41287;47.554;7.844;2023-10-09T05:50:36;98699.31;;;21.34;50.87
55418;BME280;41287;47.554;7.844;2023-10-09T05:53:24;98702.03;;;21.34;50.77
55418;BME280;41287;47.554;7.844;2023-10-09T05:56:08;98707.47;;;21.34;50.89
55418;BME280;41287;47.554;7.844;2023-10-09T05:58:52;98714.84;;;21.34;50.65
55418;BME280;41287;47.554;7.844;2023-10-09T06:01:36;98716.47;;;21.35;50.75
55418;BME280;41287;47.554;7.844;2023-10-09T06:04:20;98714.84;;;21.34;50.71
55418;BME280;41287;47.554;7.844;2023-10-09T06:06:46;98714.84;;;21.34;50.92
55418;BME280;41287;47.554;7.844;2023-10-09T06:09:23;98715.19;;;21.32;50.87
55418;BME280;41287;47.554;7.844;2023-10-09T06:12:08;98705.56;;;21.35;50.78
55418;BME280;41287;47.554;7.844;2023-10-09T06:15:08;98717.59;;;21.34;51.00
55418;BME280;41287;47.554;7.844;2023-10-09T06:17:52;98721.13;;;21.34;50.70
55418;BME280;41287;47.554;7.844;2023-10-09T06:20:18;98721.13;;;21.34;50.86
55418;BME280;41287;47.554;7.844;2023-10-09T06:23:02;98720.31;;;21.34;50.89
55418;BME280;41287;47.554;7.844;2023-10-09T06:25:43;98723.03;;;21.34;50.71
55418;BME280;41287;47.554;7.844;2023-10-09T06:28:19;98729.28;;;21.34;50.71
55418;BME280;41287;47.554;7.844;2023-10-09T06:30:58;98727.34;;;21.35;50.83
55418;BME280;41287;47.554;7.844;2023-10-09T06:33:43;98730.88;;;21.35;50.68
55418;BME280;41287;47.554;7.844;2023-10-09T06:36:28;98741.78;;;21.35;50.96
55418;BME280;41287;47.554;7.844;2023-10-09T06:38:56;98733.63;;;21.35;50.85
55418;BME280;41287;47.554;7.844;2023-10-09T06:41:41;98733.94;;;21.34;50.79
55418;BME280;41287;47.554;7.844;2023-10-09T06:44:10;98741.00;;;21.35;51.08
55418;BME280;41287;47.554;7.844;2023-10-09T06:46:55;98743.72;;;21.35;50.89
55418;BME280;41287;47.554;7.844;2023-10-09T06:49:22;98749.16;;;21.35;51.09
55418;BME280;41287;47.554;7.844;2023-10-09T06:51:54;98746.44;;;21.35;50.95
55418;BME280;41287;47.554;7.844;2023-10-09T06:54:34;98739.41;;;21.34;50.99
55418;BME280;41287;47.554;7.844;2023-10-09T06:57:02;98753.50;;;21.36;50.70
55418;BME280;41287;47.554;7.844;2023-10-09T06:59:43;98746.69;;;21.42;51.16
55418;BME280;41287;47.554;7.844;2023-10-09T07:02:28;98748.06;;;21.48;51.49
55418;BME280;41287;47.554;7.844;2023-10-09T07:04:56;98744.31;;;21.52;52.24
55418;BME280;41287;47.554;7.844;2023-10-09T07:07:22;98755.38;;;21.56;52.84
55418;BME280;41287;47.554;7.844;2023-10-09T07:09:50;98749.56;;;21.57;54.08
55418;BME280;41287;47.554;7.844;2023-10-09T07:12:34;98755.97;;;21.61;54.64
55418;BME280;41287;47.554;7.844;2023-10-09T07:15:02;98760.72;;;21.64;55.62
55418;BME280;41287;47.554;7.844;2023-10-09T07:17:30;98753.47;;;21.68;55.66
55418;BME280;41287;47.554;7.844;2023-10-09T07:20:00;98756.63;;;21.71;56.38
55418;BME280;41287;47.554;7.844;2023-10-09T07:22:39;98762.22;;;21.74;57.22
55418;BME280;41287;47.554;7.844;2023-10-09T07:25:05;98766.22;;;21.77;58.32
55418;BME280;41287;47.554;7.844;2023-10-09T07:27:42;98770.19;;;21.79;59.39
55418;BME280;41287;47.554;7.844;2023-10-09T07:30:16;98771.47;;;21.82;59.84
55418;BME280;41287;47.554;7.844;2023-10-09T07:32:58;98777.34;;;21.84;59.96
55418;BME280;41287;47.554;7.844;2023-10-09T07:35:45;98779.75;;;21.85;60.36
55418;BME280;41287;47.554;7.844;2023-10-09T07:38:24;98786.81;;;21.86;61.24
55418;BME280;41287;47.554;7.844;2023-10-09T07:41:01;98786.47;;;21.88;62.55
55418;BME280;41287;47.554;7.844;2023-10-09T07:43:34;98779.09;;;21.88;62.53
55418;BME280;41287;47.554;7.844;2023-10-09T07:46:18;98784.22;;;21.90;63.63
55418;BME280;41287;47.554;7.844;2023-10-09T07:49:00;98784.66;;;21.92;63.79
55418;BME280;41287;47.554;7.844;2023-10-09T07:51:38;98792.19;;;21.95;64.38
55418;BME280;41287;47.554;7.844;2023-10-09T07:54:04;98791.88;;;21.96;64.96
55418;BME280;41287;47.554;7.844;2023-10-09T07:56:36;98793.44;;;21.97;65.94
55418;BME280;41287;47.554;7.844;2023-10-09T07:59:12;98786.53;;;22.00;65.95
55418;BME280;41287;47.554;7.844;2023-10-09T08:01:42;98786.19;;;22.01;67.05
55418;BME280;41287;47.554;7.844;2023-10-09T08:04:21;98786.28;;;22.05;66.73
55418;BME280;41287;47.554;7.844;2023-10-09T08:07:14;98788.69;;;22.06;67.82
55418;BME280;41287;47.554;7.844;2023-10-09T08:09:54;98793.03;;;22.08;67.60
55418;BME280;41287;47.554;7.844;2023-10-09T08:12:38;98792.13;;;22.03;64.40
55418;BME280;41287;47.554;7.844;2023-10-09T08:15:09;98792.31;;;21.98;61.67
55418;BME280;41287;47.554;7.844;2023-10-09T08:20:29;98787.75;;;21.90;59.41
55418;BME280;41287;47.554;7.844;2023-10-09T08:23:24;98791.94;;;21.88;58.62
55418;BME280;41287;47.554;7.844;2023-10-09T08:26:11;98787.94;;;21.85;57.98
55418;BME280;41287;47.554;7.844;2023-10-09T08:28:42;98788.63;;;21.82;57.42
55418;BME280;41287;47.554;7.844;2023-10-09T08:31:17;98787.69;;;21.78;56.82
55418;BME280;41287;47.554;7.844;2023-10-09T08:34:00;98790.41;;;21.78;56.85
55418;BME280;41287;47.554;7.844;2023-10-09T08:36:27;98793.50;;;21.77;56.54
55418;BME280;41287;47.554;7.844;2023-10-09T08:39:04;98785.97;;;21.74;56.30
55418;BME280;41287;47.554;7.844;2023-10-09T08:41:53;98787.13;;;21.73;56.25
55418;BME280;41287;47.554;7.844;2023-10-09T08:44:20;98786.66;;;21.71;56.17
55418;BME280;41287;47.554;7.844;2023-10-09T08:46:50;98784.28;;;21.69;56.08
55418;BME280;41287;47.554;7.844;2023-10-09T08:49:17;98790.88;;;21.68;55.81
55418;BME280;41287;47.554;7.844;2023-10-09T08:51:43;98784.94;;;21.66;55.99
55418;BME280;41287;47.554;7.844;2023-10-09T08:54:11;98784.13;;;21.65;55.65
55418;BME280;41287;47.554;7.844;2023-10-09T08:56:39;98785.25;;;21.64;55.86
55418;BME280;41287;47.554;7.844;2023-10-09T08:59:18;98788.34;;;21.63;55.74
55418;BME280;41287;47.554;7.844;2023-10-09T09:01:45;98776.66;;;21.62;55.67
55418;BME280;41287;47.554;7.844;2023-10-09T09:04:34;98783.09;;;21.58;55.86
55418;BME280;41287;47.554;7.844;2023-10-09T09:06:59;98778.91;;;21.60;55.61
55418;BME280;41287;47.554;7.844;2023-10-09T09:09:24;98776.97;;;21.61;55.63
55418;BME280;41287;47.554;7.844;2023-10-09T09:11:53;98779.22;;;21.59;55.69
55418;BME280;41287;47.554;7.844;2023-10-09T09:14:20;98773.78;;;21.59;55.42
55418;BME280;41287;47.554;7.844;2023-10-09T09:16:47;98765.94;;;21.57;55.70
55418;BME280;41287;47.554;7.844;2023-10-09T09:19:17;98764.00;;;21.58;55.73
55418;BME280;41287;47.554;7.844;2023-10-09T09:21:53;98763.56;;;21.56;55.50
55418;BME280;41287;47.554;7.844;2023-10-09T09:24:25;98762.88;;;21.59;55.23
55418;BME280;41287;47.554;7.844;2023-10-09T09:26:55;98762.88;;;21.59;55.38
55418;BME280;41287;47.554;7.844;2023-10-09T09:29:44;98754.22;;;21.57;55.64
55418;BME280;41287;47.554;7.844;2023-10-09T09:32:26;98747.19;;;21.56;55.29
55418;BME280;41287;47.554;7.844;2023-10-09T09:34:55;98746.84;;;21.57;55.48
55418;BME280;41287;47.554;7.844;2023-10-09T09:37:28;98744.47;;;21.56;55.37
55418;BME280;41287;47.554;7.844;2023-10-09T09:40:03;98749.44;;;21.54;55.35
55418;BME280;41287;47.554;7.844;2023-10-09T09:42:57;98742.06;;;21.54;54.95
55418;BME280;41287;47.554;7.844;2023-10-09T09:45:34;98741.28;;;21.54;55.10
55418;BME280;41287;47.554;7.844;2023-10-09T09:48:02;98740.47;;;21.53;55.04
55418;BME280;41287;47.554;7.844;2023-10-09T09:50:34;98738.88;;;21.52;55.11
55418;BME280;41287;47.554;7.844;2023-10-09T09:53:04;98743.19;;;21.53;54.76
55418;BME280;41287;47.554;7.844;2023-10-09T09:55:34;98738.53;;;21.54;54.70
55418;BME280;41287;47.554;7.844;2023-10-09T09:58:02;98740.47;;;21.53;54.95
55418;BME280;41287;47.554;7.844;2023-10-09T10:00:33;98736.16;;;21.52;54.63
55418;BME280;41287;47.554;7.844;2023-10-09T10:03:11;98728.31;;;21.51;54.77
55418;BME280;41287;47.554;7.844;2023-10-09T10:05:41;98741.13;;;21.50;54.76
55418;BME280;41287;47.554;7.844;2023-10-09T10:08:08;98723.97;;;21.50;54.56
55418;BME280;41287;47.554;7.844;2023-10-09T10:10:38;98739.22;;;21.51;54.62
55418;BME280;41287;47.554;7.844;2023-10-09T10:13:13;98741.94;;;21.51;54.72
55418;BME280;41287;47.554;7.844;2023-10-09T10:15:59;98734.44;;;21.48;54.59
55418;BME280;41287;47.554;7.844;2023-10-09T10:18:32;98732.16;;;21.50;54.24
55418;BME280;41287;47.554;7.844;2023-10-09T10:21:10;98733.31;;;21.49;54.43
55418;BME280;41287;47.554;7.844;2023-10-09T10:23:42;98734.56;;;21.51;54.51
55418;BME280;41287;47.554;7.844;2023-10-09T10:26:21;98730.59;;;21.49;54.46
55418;BME280;41287;47.554;7.844;2023-10-09T10:31:55;98723.22;;;21.49;54.29
55418;BME280;41287;47.554;7.844;2023-10-09T10:34:23;98722.84;;;21.51;54.05
55418;BME280;41287;47.554;7.844;2023-10-09T10:36:49;98718.53;;;21.50;53.74
55418;BME280;41287;47.554;7.844;2023-10-09T10:39:18;98723.22;;;21.49;53.63
55418;BME280;41287;47.554;7.844;2023-10-09T10:41:53;98718.09;;;21.48;53.83
55418;BME280;41287;47.554;7.844;2023-10-09T10:44:45;98706.72;;;21.46;53.87
55418;BME280;41287;47.554;7.844;2023-10-09T10:47:12;98711.94;;;21.51;53.85
55418;BME280;41287;47.554;7.844;2023-10-09T10:49:49;98706.47;;;21.51;55.09
55418;BME280;41287;47.554;7.844;2023-10-09T10:52:23;98709.56;;;21.49;54.44
55418;BME280;41287;47.554;7.844;2023-10-09T10:55:10;98704.88;;;21.50;53.91
55418;BME280;41287;47.554;7.844;2023-10-09T10:57:54;98701.84;;;21.51;54.08
55418;BME280;41287;47.554;7.844;2023-10-09T11:00:28;98695.56;;;21.51;53.96
55418;BME280;41287;47.554;7.844;2023-10-09T11:03:22;98690.50;;;21.49;54.07
55418;BME280;41287;47.554;7.844;2023-10-09T11:06:01;98692.06;;;21.50;54.30
55418;BME280;41287;47.554;7.844;2023-10-09T11:08:45;98690.50;;;21.49;54.13
55418;BME280;41287;47.554;7.844;2023-10-09T11:11:34;98689.31;;;21.50;54.27
55418;BME280;41287;47.554;7.844;2023-10-09T11:14:12;98691.63;;;21.48;54.19
55418;BME280;41287;47.554;7.844;2023-10-09T11:16:44;98687.75;;;21.49;54.06
55418;BME280;41287;47.554;7.844;2023-10-09T11:19:14;98691.25;;;21.50;53.65
55418;BME280;41287;47.554;7.844;2023-10-09T11:21:59;98688.53;;;21.50;53.81
55418;BME280;41287;47.554;7.844;2023-10-09T11:24:32;98678.41;;;21.50;54.07
55418;BME280;41287;47.554;7.844;2023-10-09T11:27:04;98681.94;;;21.51;54.62
55418;BME280;41287;47.554;7.844;2023-10-09T11:29:32;98683.53;;;21.52;54.42
55418;BME280;41287;47.554;7.844;2023-10-09T11:32:20;98677.63;;;21.50;54.08
55418;BME280;41287;47.554;7.844;2023-10-09T11:34:49;98680.81;;;21.52;54.23
55418;BME280;41287;47.554;7.844;2023-10-09T11:37:22;98682.75;;;21.51;53.84
55418;BME280;41287;47.554;7.844;2023-10-09T11:40:30;98677.19;;;21.48;54.17
55418;BME280;41287;47.554;7.844;2023-10-09T11:43:15;98672.88;;;21.47;53.83
55418;BME280;41287;47.554;7.844;2023-10-09T11:45:40;98672.63;;;21.52;53.83
55418;BME280;41287;47.554;7.844;2023-10-09T11:48:19;98670.25;;;21.50;53.52
55418;BME280;41287;47.554;7.844;2023-10-09T11:50:52;98665.59;;;21.51;53.48
55418;BME280;41287;47.554;7.844;2023-10-09T11:53:20;98669.44;;;21.50;53.29
55418;BME280;41287;47.554;7.844;2023-10-09T11:55:49;98657.41;;;21.51;53.51
55418;BME280;41287;47.554;7.844;2023-10-09T11:58:16;98656.59;;;21.50;53.13
55418;BME280;41287;47.554;7.844;2023-10-09T12:00:51;98656.59;;;21.50;53.18
55418;BME280;41287;47.554;7.844;2023-10-09T12:03:25;98651.94;;;21.51;53.48
55418;BME280;41287;47.554;7.844;2023-10-09T12:05:54;98647.28;;;21.51;53.21
55418;BME280;41287;47.554;7.844;2023-10-09T12:08:21;98638.31;;;21.51;53.04
55418;BME280;41287;47.554;7.844;2023-10-09T12:10:47;98637.19;;;21.52;53.27
55418;BME280;41287;47.554;7.844;2023-10-09T12:13:13;98630.94;;;21.51;53.03
55418;BME280;41287;47.554;7.844;2023-10-09T12:15:41;98636.06;;;21.53;53.16
55418;BME280;41287;47.554;7.844;2023-10-09T12:18:09;98637.97;;;21.52;53.02
55418;BME280;41287;47.554;7.844;2023-10-09T12:20:41;98631.72;;;21.52;53.17
55418;BME280;41287;47.554;7.844;2023-10-09T12:23:19;98625.16;;;21.53;53.21
55418;BME280;41287;47.554;7.844;2023-10-09T12:25:44;98626.28;;;21.52;52.82
55418;BME280;41287;47.554;7.844;2023-10-09T12:28:11;98621.63;;;21.52;52.93
55418;BME280;41287;47.554;7.844;2023-10-09T12:30:40;98625.16;;;21.53;52.96
55418;BME280;41287;47.554;7.844;2023-10-09T12:33:07;98620.81;;;21.52;53.20
55418;BME280;41287;47.554;7.844;2023-10-09T12:35:39;98622.75;;;21.51;53.08
55418;BME280;41287;47.554;7.844;2023-10-09T12:38:07;98622.41;;;21.53;53.05
55418;BME280;41287;47.554;7.844;2023-10-09T12:40:39;98618.09;;;21.52;52.77
55418;BME280;41287;47.554;7.844;2023-10-09T12:43:18;98618.91;;;21.52;53.06
55418;BME280;41287;47.554;7.844;2023-10-09T12:45:47;98613.78;;;21.51;52.88
55418;BME280;41287;47.554;7.844;2023-10-09T12:48:12;98610.72;;;21.52;52.93
55418;BME280;41287;47.554;7.844;2023-10-09T12:50:39;98607.19;;;21.52;52.87
55418;BME280;41287;47.554;7.844;2023-10-09T12:53:09;98602.53;;;21.52;52.76
55418;BME280;41287;47.554;7.844;2023-10-09T12:55:37;98598.69;;;21.53;53.07
55418;BME280;41287;47.554;7.844;2023-10-09T12:58:08;98598.69;;;21.53;52.87
55418;BME280;41287;47.554;7.844;2023-10-09T13:00:37;98597.09;;;21.52;52.74
55418;BME280;41287;47.554;7.844;2023-10-09T13:03:10;98590.84;;;21.52;53.14
55418;BME280;41287;47.554;7.844;2023-10-09T13:08:24;98583.78;;;21.51;52.75
55418;BME280;41287;47.554;7.844;2023-10-09T13:10:56;98583.78;;;21.51;52.92
55418;BME280;41287;47.554;7.844;2023-10-09T13:13:28;98582.97;;;21.50;52.94
55418;BME280;41287;47.554;7.844;2023-10-09T13:16:13;98585.38;;;21.52;53.19
55418;BME280;41287;47.554;7.844;2023-10-09T13:21:20;98581.53;;;21.53;53.62
55418;BME280;41287;47.554;7.844;2023-10-09T13:23:49;98577.19;;;21.52;53.31
55418;BME280;41287;47.554;7.844;2023-10-09T13:26:20;98571.75;;;21.52;53.29
55418;BME280;41287;47.554;7.844;2023-10-09T13:28:51;98575.59;;;21.51;53.25
55418;BME280;41287;47.554;7.844;2023-10-09T13:31:18;98572.06;;;21.50;53.51
55418;BME280;41287;47.554;7.844;2023-10-09T13:33:44;98566.28;;;21.52;53.33
55418;BME280;41287;47.554;7.844;2023-10-09T13:36:11;98569.03;;;21.52;53.13
55418;BME280;41287;47.554;7.844;2023-10-09T13:38:58;98562.75;;;21.51;53.38
55418;BME280;41287;47.554;7.844;2023-10-09T13:41:44;98560.03;;;21.51;53.29
55418;BME280;41287;47.554;7.844;2023-10-09T13:44:09;98561.16;;;21.50;53.16
55418;BME280;41287;47.554;7.844;2023-10-09T13:46:34;98555.72;;;21.50;53.14
55418;BME280;41287;47.554;7.844;2023-10-09T13:49:06;98553.78;;;21.51;53.00
55418;BME280;41287;47.554;7.844;2023-10-09T13:51:40;98543.69;;;21.51;53.01
55418;BME280;41287;47.554;7.844;2023-10-09T13:54:12;98543.69;;;21.51;53.21
55418;BME280;41287;47.554;7.844;2023-10-09T13:56:45;98542.53;;;21.52;53.17
55418;BME280;41287;47.554;7.844;2023-10-09T13:59:11;98543.34;;;21.53;52.94
55418;BME280;41287;47.554;7.844;2023-10-09T14:01:37;98542.22;;;21.54;52.90